Time;durP1;ratioP1;P1;durP2;ratioP2;P2;SDS_P1;SDS_P2;PMS_P1;PMS_P2;Temp;Humidity;BMP_temperature;BMP_pressure;BME280_temperature;BME280_humidity;BME280_pressure;Samples;Min_cycle;Max_cycle;Signal;HPM_P1;HPM_P2
2021/06/27 00:00:26;;;;;;;8.45;2.42;;;;;;;23.53;54.56;99278.06;5071894;28;20025;-76
2021/06/27 00:02:52;;;;;;;8.48;2.88;;;;;;;23.73;54.62;99328.50;5071753;28;20017;-76
2021/06/27 00:05:22;;;;;;;7.30;2.53;;;;;;;23.64;54.50;99306.66;5071944;28;20028;-77
2021/06/27 00:07:50;;;;;;;8.27;2.58;;;;;;;23.35;54.45;99270.50;5071645;28;20032;-77
2021/06/27 00:10:19;;;;;;;5.82;2.75;;;;;;;23.57;54.62;99316.09;5071740;28;20552;-76
2021/06/27 00:12:45;;;;;;;9.98;3.15;;;;;;;23.61;54.83;99339.53;5069779;28;20412;-76
2021/06/27 00:15:22;;;;;;;6.68;2.67;;;;;;;23.23;54.74;99284.22;5071314;28;20025;-76
2021/06/27 00:17:48;;;;;;;6.15;2.80;;;;;;;23.13;54.87;99266.16;5071739;28;20043;-76
2021/06/27 00:20:29;;;;;;;6.93;2.80;;;;;;;23.17;54.76;99271.84;5071602;28;20101;-76
2021/06/27 00:22:55;;;;;;;6.03;3.15;;;;;;;23.16;54.78;99272.91;5071756;28;20030;-76
2021/06/27 00:25:23;;;;;;;6.53;2.75;;;;;;;23.51;54.76;99334.13;5070601;28;20547;-77
2021/06/27 00:27:50;;;;;;;7.25;2.97;;;;;;;23.48;54.60;99331.16;5071459;28;20115;-76
2021/06/27 00:30:18;;;;;;;9.85;2.83;;;;;;;22.86;54.75;99244.00;5071613;28;20026;-76
2021/06/27 00:32:44;;;;;;;6.00;2.70;;;;;;;22.99;54.70;99266.91;5071594;28;20021;-76
2021/06/27 00:35:12;;;;;;;7.82;3.20;;;;;;;23.44;54.61;99344.34;5070206;28;20456;-76
2021/06/27 00:37:37;;;;;;;7.07;2.88;;;;;;;22.97;54.70;99266.38;5071386;28;20069;-77
2021/06/27 00:40:09;;;;;;;7.30;2.92;;;;;;;23.33;54.57;99343.50;5071433;28;20095;-77
2021/06/27 00:42:34;;;;;;;10.75;3.53;;;;;;;22.86;54.56;99270.91;5071183;28;20028;-76
2021/06/27 00:45:01;;;;;;;8.15;3.00;;;;;;;23.02;54.62;99277.97;5071537;28;20028;-77
2021/06/27 00:47:31;;;;;;;7.85;3.13;;;;;;;23.40;54.58;99324.41;5071143;28;20386;-77
2021/06/27 00:49:58;;;;;;;6.78;3.03;;;;;;;23.38;54.50;99316.59;5071675;28;20029;-76
2021/06/27 00:52:24;;;;;;;6.00;3.22;;;;;;;23.30;54.32;99300.13;5070987;28;20035;-76
2021/06/27 00:54:50;;;;;;;4.88;2.38;;;;;;;23.04;54.53;99275.84;5071058;28;20020;-76
2021/06/27 00:57:15;;;;;;;5.00;2.65;;;;;;;23.05;54.41;99272.06;5069616;28;20032;-77
2021/06/27 00:59:41;;;;;;;9.73;3.80;;;;;;;23.38;54.60;99348.09;5070955;28;20035;-76
2021/06/27 01:02:07;;;;;;;7.50;3.00;;;;;;;23.42;54.17;99314.97;5071014;28;20103;-77
2021/06/27 01:04:33;;;;;;;8.77;3.20;;;;;;;23.42;54.22;99316.84;5069889;28;20107;-77
2021/06/27 01:06:58;;;;;;;6.95;3.20;;;;;;;23.27;54.24;99301.47;5070868;28;20060;-76
2021/06/27 01:09:23;;;;;;;6.85;3.03;;;;;;;23.35;54.19;99308.22;5070830;28;20416;-75
2021/06/27 01:11:49;;;;;;;12.82;3.83;;;;;;;22.90;54.31;99231.63;5070953;28;20017;-76
2021/06/27 01:14:15;;;;;;;8.70;3.08;;;;;;;22.43;54.32;99149.13;5070845;28;20051;-76
2021/06/27 01:16:41;;;;;;;9.32;3.38;;;;;;;22.96;54.38;99241.34;5070991;28;20501;-77
2021/06/27 01:19:09;;;;;;;7.95;2.85;;;;;;;22.97;54.45;99247.53;5071059;28;20470;-75
2021/06/27 01:21:36;;;;;;;6.88;3.17;;;;;;;23.23;54.56;99299.59;5070899;28;20507;-76
2021/06/27 01:24:02;;;;;;;8.25;3.42;;;;;;;23.24;54.35;99299.31;5072529;28;20457;-77
2021/06/27 01:26:28;;;;;;;5.47;2.60;;;;;;;23.05;54.41;99273.97;5074333;28;20032;-76
2021/06/27 01:28:54;;;;;;;7.57;2.58;;;;;;;23.16;54.53;99307.91;5074704;28;20474;-77
2021/06/27 01:31:19;;;;;;;7.97;2.72;;;;;;;22.71;54.38;99239.34;5074571;28;20020;-77
2021/06/27 01:33:48;;;;;;;8.90;3.15;;;;;;;23.05;54.32;99293.63;5074240;28;20020;-77
2021/06/27 01:36:14;;;;;;;9.13;3.20;;;;;;;22.94;54.38;99274.97;5074215;28;20025;-77
2021/06/27 01:38:40;;;;;;;8.52;3.65;;;;;;;23.00;54.50;99303.53;5074320;28;20029;-76
2021/06/27 01:41:06;;;;;;;9.20;2.80;;;;;;;22.91;54.69;99292.47;5073034;28;20039;-77
2021/06/27 01:43:32;;;;;;;6.45;2.83;;;;;;;22.80;54.70;99280.06;5074325;28;20504;-76
2021/06/27 01:46:04;;;;;;;5.68;2.90;;;;;;;22.77;54.78;99297.50;5074078;28;20099;-75
2021/06/27 01:48:31;;;;;;;6.55;2.60;;;;;;;22.25;55.10;99221.38;5074210;28;20032;-77
2021/06/27 01:50:59;;;;;;;6.78;3.15;;;;;;;22.62;55.11;99288.56;5074289;28;20531;-76
2021/06/27 01:53:27;;;;;;;6.00;2.50;;;;;;;22.07;55.03;99204.63;5074161;28;20020;-76
2021/06/27 01:56:06;;;;;;;10.45;2.85;;;;;;;22.67;55.10;99302.84;5073922;28;20020;-77
2021/06/27 01:58:43;;;;;;;7.78;3.08;;;;;;;22.65;55.13;99296.94;5074297;28;20029;-76
2021/06/27 02:01:22;;;;;;;9.70;3.10;;;;;;;22.41;54.94;99268.84;5073995;28;20020;-77
2021/06/27 02:03:49;;;;;;;4.22;2.17;;;;;;;22.62;55.20;99288.56;5073999;28;20031;-78
2021/06/27 02:06:17;;;;;;;10.35;2.65;;;;;;;22.60;55.14;99286.13;5073825;28;20025;-76
2021/06/27 02:08:43;;;;;;;5.45;2.60;;;;;;;22.00;55.28;99205.91;5073813;28;20062;-77
2021/06/27 02:11:10;;;;;;;9.10;2.47;;;;;;;22.64;55.13;99281.84;5073750;28;20044;-77
2021/06/27 02:13:36;;;;;;;6.43;2.70;;;;;;;22.14;55.12;99223.22;5073899;28;20119;-77
2021/06/27 02:16:03;;;;;;;6.47;2.40;;;;;;;21.91;55.03;99175.22;5072498;28;20504;-77
2021/06/27 02:18:34;;;;;;;6.82;2.42;;;;;;;22.11;55.22;99215.69;5073540;28;20090;-76
2021/06/27 02:21:03;;;;;;;7.40;2.63;;;;;;;22.31;55.49;99249.97;5073424;28;20110;-76
2021/06/27 02:23:29;;;;;;;7.28;2.60;;;;;;;22.37;55.23;99259.69;5073784;28;20031;-76
2021/06/27 02:25:56;;;;;;;5.15;2.33;;;;;;;21.85;55.08;99158.25;5073481;28;20099;-76
2021/06/27 02:28:22;;;;;;;6.38;2.35;;;;;;;22.68;54.93;99280.25;5073637;28;20440;-77
2021/06/27 02:30:48;;;;;;;9.15;2.20;;;;;;;22.72;54.83;99280.53;5073321;28;20016;-77
2021/06/27 02:33:15;;;;;;;5.47;2.42;;;;;;;22.31;54.80;99215.81;5073241;28;20021;-76
2021/06/27 02:35:40;;;;;;;6.40;2.55;;;;;;;22.83;54.54;99291.09;5072865;28;20024;-77
2021/06/27 02:38:07;;;;;;;7.22;2.80;;;;;;;22.85;54.54;99290.03;5073407;28;20393;-76
2021/06/27 02:40:32;;;;;;;6.72;2.20;;;;;;;22.87;54.41;99291.38;5073321;28;20386;-77
2021/06/27 02:42:58;;;;;;;7.47;2.60;;;;;;;22.79;54.44;99289.97;5073518;28;20081;-76
2021/06/27 02:45:24;;;;;;;5.05;2.20;;;;;;;22.69;54.29;99270.28;5073063;28;20024;-77
2021/06/27 02:47:49;;;;;;;7.70;2.50;;;;;;;22.87;54.36;99285.19;5073261;28;20045;-77
2021/06/27 02:50:16;;;;;;;10.80;3.13;;;;;;;22.90;54.41;99287.34;5073085;28;20028;-77
2021/06/27 02:52:42;;;;;;;5.60;2.63;;;;;;;22.75;54.21;99255.78;5073192;28;20033;-77
2021/06/27 02:55:09;;;;;;;8.63;3.00;;;;;;;23.02;54.01;99288.72;5073121;28;20086;-76
2021/06/27 02:57:35;;;;;;;8.65;2.35;;;;;;;22.59;53.94;99225.31;5072660;28;20028;-76
2021/06/27 03:00:01;;;;;;;7.30;2.35;;;;;;;22.56;53.85;99244.69;5072718;28;20043;-76
2021/06/27 03:02:27;;;;;;;10.07;2.55;;;;;;;22.60;53.87;99242.28;5072911;28;20024;-76
2021/06/27 03:04:53;;;;;;;6.13;2.78;;;;;;;22.65;53.89;99267.31;5072982;28;20078;-76
2021/06/27 03:07:18;;;;;;;6.22;2.65;;;;;;;22.84;53.84;99275.75;5072652;28;20029;-76
2021/06/27 03:09:44;;;;;;;7.60;2.90;;;;;;;22.87;53.97;99274.41;5072567;28;20020;-76
2021/06/27 03:12:12;;;;;;;5.93;2.30;;;;;;;22.75;54.07;99267.34;5072734;28;20509;-77
2021/06/27 03:14:37;;;;;;;7.68;2.50;;;;;;;22.92;54.10;99283.31;5072682;28;20112;-76
2021/06/27 03:17:03;;;;;;;10.77;2.88;;;;;;;22.72;54.25;99253.63;5072567;28;20517;-76
2021/06/27 03:19:28;;;;;;;8.27;3.05;;;;;;;22.97;54.18;99277.94;5072575;28;20084;-77
2021/06/27 03:21:54;;;;;;;5.32;2.78;;;;;;;22.65;54.00;99216.19;5072467;28;20508;-76
2021/06/27 03:24:19;;;;;;;8.27;2.53;;;;;;;23.06;54.06;99273.69;5072366;28;20485;-76
2021/06/27 03:26:45;;;;;;;8.98;2.53;;;;;;;22.90;54.07;99250.47;5072359;28;20035;-76
2021/06/27 03:29:10;;;;;;;6.47;2.40;;;;;;;22.73;53.92;99210.28;5072107;28;20483;-76
2021/06/27 03:31:36;;;;;;;8.60;2.67;;;;;;;22.72;54.03;99208.69;5072226;28;20054;-75
2021/06/27 03:34:01;;;;;;;6.55;2.30;;;;;;;22.78;53.92;99212.19;5072236;28;20040;-77
2021/06/27 03:36:27;;;;;;;5.18;2.22;;;;;;;23.14;53.89;99261.59;5072190;28;20020;-76
2021/06/27 03:41:51;;;;;;;11.15;3.13;;;;;;;23.23;53.60;99265.38;5067216;28;20044;-77
2021/06/27 03:44:17;;;;;;;5.40;2.40;;;;;;;22.69;53.46;99181.50;5071910;28;20532;-76
2021/06/27 03:46:42;;;;;;;6.38;2.33;;;;;;;23.04;53.56;99235.44;5071305;28;20029;-77
2021/06/27 03:49:08;;;;;;;4.55;2.30;;;;;;;23.33;53.44;99278.84;5071971;28;20511;-76
2021/06/27 03:51:33;;;;;;;7.40;2.47;;;;;;;23.35;53.54;99283.97;5071994;28;20028;-76
2021/06/27 03:53:59;;;;;;;6.75;2.53;;;;;;;23.18;53.30;99243.00;5071763;28;20032;-76
2021/06/27 03:56:25;;;;;;;6.25;2.75;;;;;;;23.27;53.47;99258.38;5071615;28;20024;-76
2021/06/27 03:58:51;;;;;;;6.22;2.17;;;;;;;23.12;53.57;99248.38;5071890;28;20055;-76
2021/06/27 04:01:17;;;;;;;7.82;2.00;;;;;;;23.22;53.55;99255.69;5071733;28;20039;-76
2021/06/27 04:03:42;;;;;;;8.82;2.50;;;;;;;23.46;53.25;99280.22;5071785;28;20039;-76
2021/06/27 04:06:08;;;;;;;7.10;2.65;;;;;;;23.42;53.31;99279.94;5071383;28;20032;-76
2021/06/27 04:08:34;;;;;;;8.85;2.60;;;;;;;23.54;53.44;99273.47;5071288;28;20097;-76
2021/06/27 04:11:00;;;;;;;7.25;2.90;;;;;;;23.56;53.37;99269.47;5071469;28;20522;-77
2021/06/27 04:13:31;;;;;;;7.03;2.55;;;;;;;23.53;53.62;99261.88;5070373;28;20039;-77
2021/06/27 04:15:58;;;;;;;9.30;3.22;;;;;;;23.63;53.74;99274.59;5071702;28;20031;-76
2021/06/27 04:18:24;;;;;;;6.68;2.63;;;;;;;23.31;53.51;99227.13;5070217;28;20451;-77
2021/06/27 04:20:50;;;;;;;4.68;3.00;;;;;;;23.73;53.58;99294.25;5071289;28;20033;-76
2021/06/27 04:23:15;;;;;;;8.95;3.28;;;;;;;23.76;53.46;99295.59;5071476;28;20067;-75
2021/06/27 04:25:42;;;;;;;8.77;3.15;;;;;;;23.45;53.38;99236.28;5071300;28;20056;-76
2021/06/27 04:28:08;;;;;;;6.78;2.55;;;;;;;23.49;53.34;99257.31;5071460;28;20035;-76
2021/06/27 04:30:34;;;;;;;5.20;2.38;;;;;;;23.76;53.32;99287.53;5071571;28;20016;-75
2021/06/27 04:33:00;;;;;;;8.07;2.85;;;;;;;23.36;53.21;99246.00;5071480;28;20520;-75
2021/06/27 04:35:26;;;;;;;8.73;3.22;;;;;;;23.53;53.30;99275.38;5071126;28;20099;-76
2021/06/27 04:37:51;;;;;;;6.65;3.10;;;;;;;23.29;53.30;99228.47;5071069;28;20017;-76
2021/06/27 04:40:17;;;;;;;8.38;3.17;;;;;;;23.79;53.06;99305.88;5071469;28;20028;-76
2021/06/27 04:42:42;;;;;;;5.85;2.78;;;;;;;23.84;53.21;99311.28;5071201;28;20634;-76
2021/06/27 04:45:08;;;;;;;10.65;3.50;;;;;;;23.88;52.77;99306.97;5071244;28;20473;-76
2021/06/27 04:47:35;;;;;;;7.82;2.53;;;;;;;23.56;52.65;99252.50;5069917;28;20126;-76
2021/06/27 04:50:04;;;;;;;6.22;2.55;;;;;;;23.51;52.70;99252.47;5071317;28;20398;-75
2021/06/27 04:52:32;;;;;;;10.07;2.92;;;;;;;23.87;52.42;99302.66;5071295;28;20025;-76
2021/06/27 04:54:57;;;;;;;10.93;2.85;;;;;;;23.85;52.25;99302.09;5071188;28;20024;-76
2021/06/27 04:57:23;;;;;;;8.43;3.03;;;;;;;24.12;52.36;99334.16;5072073;28;20027;-77
2021/06/27 04:59:48;;;;;;;7.55;2.72;;;;;;;24.12;52.21;99333.38;5075321;28;20028;-76
2021/06/27 05:02:14;;;;;;;6.35;2.67;;;;;;;23.61;52.08;99247.09;5075281;28;20090;-76
2021/06/27 05:04:39;;;;;;;7.90;3.10;;;;;;;23.82;52.16;99285.66;5074008;28;20107;-77
2021/06/27 05:07:04;;;;;;;8.55;3.00;;;;;;;23.66;52.06;99255.19;5073634;28;20481;-76
2021/06/27 05:09:30;;;;;;;6.43;3.10;;;;;;;24.11;52.16;99332.56;5074995;28;20024;-77
2021/06/27 05:11:55;;;;;;;7.13;2.75;;;;;;;24.17;52.22;99334.16;5074900;28;20025;-75
2021/06/27 05:14:21;;;;;;;6.82;2.92;;;;;;;24.22;52.11;99368.41;5074968;28;20103;-77
2021/06/27 05:16:46;;;;;;;7.25;2.65;;;;;;;24.18;51.98;99334.97;5073765;28;20130;-76
2021/06/27 05:19:11;;;;;;;9.45;3.08;;;;;;;24.29;52.12;99350.09;5074841;28;20100;-76
2021/06/27 05:21:37;;;;;;;9.32;3.17;;;;;;;24.00;51.96;99304.78;5074597;28;20493;-75
2021/06/27 05:24:03;;;;;;;8.02;3.00;;;;;;;23.76;51.95;99272.16;5074852;28;20107;-76
2021/06/27 05:26:28;;;;;;;8.45;3.30;;;;;;;24.30;51.92;99351.72;5073170;28;20078;-75
2021/06/27 05:28:53;;;;;;;7.80;2.83;;;;;;;24.06;52.18;99308.28;5074635;28;20082;-77
2021/06/27 05:31:19;;;;;;;6.13;2.45;;;;;;;24.44;52.01;99363.56;5074928;28;20028;-76
2021/06/27 05:33:44;;;;;;;6.10;2.80;;;;;;;24.59;51.90;99370.84;5074639;28;20024;-74
2021/06/27 05:36:10;;;;;;;6.28;2.67;;;;;;;24.64;51.84;99384.31;5074254;28;20017;-76
2021/06/27 05:38:35;;;;;;;9.77;3.60;;;;;;;24.70;51.79;99384.03;5074456;28;20466;-76
2021/06/27 05:41:01;;;;;;;8.32;2.67;;;;;;;24.49;51.73;99333.03;5074292;28;20052;-76
2021/06/27 05:43:26;;;;;;;9.95;2.85;;;;;;;24.81;51.50;99373.19;5074493;28;20025;-76
2021/06/27 05:45:52;;;;;;;7.75;2.53;;;;;;;24.33;51.02;99291.81;5074336;28;20024;-76
2021/06/27 05:48:17;;;;;;;7.72;2.28;;;;;;;24.65;51.14;99338.16;5074280;28;20408;-76
2021/06/27 05:50:43;;;;;;;9.25;2.10;;;;;;;24.30;51.11;99285.06;5074202;28;20528;-75
2021/06/27 05:53:08;;;;;;;6.28;2.53;;;;;;;25.00;51.13;99383.16;5074189;28;20397;-76
2021/06/27 05:55:33;;;;;;;4.38;2.22;;;;;;;24.87;50.87;99347.78;5074091;28;20017;-76
2021/06/27 05:57:59;;;;;;;8.73;2.28;;;;;;;24.85;50.50;99358.06;5072682;28;20016;-76
2021/06/27 06:00:24;;;;;;;6.85;2.00;;;;;;;24.60;49.96;99324.66;5074193;28;20099;-74
2021/06/27 06:02:50;;;;;;;9.73;2.50;;;;;;;24.55;49.70;99316.59;5074261;28;20449;-76
2021/06/27 06:05:15;;;;;;;6.90;2.08;;;;;;;25.06;49.43;99381.22;5073776;28;20024;-76
2021/06/27 06:07:41;;;;;;;7.57;2.70;;;;;;;24.96;49.41;99365.84;5073828;28;20021;-76
2021/06/27 06:10:07;;;;;;;9.45;2.03;;;;;;;25.18;49.02;99386.31;5073019;28;20500;-76
2021/06/27 06:12:33;;;;;;;10.43;2.78;;;;;;;24.64;49.33;99297.94;5073917;28;20021;-75
2021/06/27 06:14:58;;;;;;;8.77;2.67;;;;;;;24.77;49.27;99320.84;5072488;28;20025;-76
2021/06/27 06:17:23;;;;;;;7.50;2.30;;;;;;;25.30;49.68;99393.03;5073829;28;20017;-76
2021/06/27 06:19:53;;;;;;;7.40;2.47;;;;;;;25.04;49.25;99353.69;5073492;28;20450;-75
2021/06/27 06:22:20;;;;;;;10.73;3.00;;;;;;;24.91;49.05;99313.75;5072234;28;20025;-76
2021/06/27 06:24:46;;;;;;;8.60;2.47;;;;;;;25.48;48.76;99401.59;5073833;28;20025;-75
2021/06/27 06:27:13;;;;;;;8.25;2.78;;;;;;;25.51;48.86;99387.50;5073657;28;20078;-76
2021/06/27 06:29:38;;;;;;;9.77;2.95;;;;;;;25.67;48.59;99404.47;5073534;28;20052;-75
2021/06/27 06:32:04;;;;;;;8.93;2.63;;;;;;;25.34;48.68;99344.63;5073428;28;20558;-75
2021/06/27 06:34:29;;;;;;;9.98;2.85;;;;;;;25.78;48.38;99397.91;5073599;28;20056;-75
2021/06/27 06:36:55;;;;;;;7.65;2.63;;;;;;;25.84;48.29;99394.88;5073584;28;20013;-75
2021/06/27 06:39:20;;;;;;;9.00;2.47;;;;;;;25.92;48.38;99382.66;5073562;28;20104;-76
2021/06/27 06:41:46;;;;;;;6.97;2.47;;;;;;;25.64;48.23;99330.91;5071902;28;20056;-76
2021/06/27 06:44:11;;;;;;;8.38;2.90;;;;;;;25.89;48.23;99377.81;5073434;28;20017;-76
2021/06/27 06:46:37;;;;;;;5.35;2.75;;;;;;;25.71;48.46;99330.63;5071833;28;20033;-76
2021/06/27 06:49:02;;;;;;;10.60;2.50;;;;;;;26.13;48.39;99377.91;5073183;28;20027;-76
2021/06/27 06:51:28;;;;;;;9.95;3.05;;;;;;;25.93;48.29;99333.69;5071866;28;20103;-75
2021/06/27 06:53:53;;;;;;;8.23;2.30;;;;;;;26.36;47.96;99387.22;5072968;28;20047;-76
2021/06/27 06:56:19;;;;;;;6.38;2.50;;;;;;;26.22;47.45;99358.06;5072655;28;20465;-76
2021/06/27 06:58:45;;;;;;;10.38;2.72;;;;;;;26.25;47.02;99352.09;5072853;28;20013;-76
2021/06/27 07:01:11;;;;;;;10.20;2.90;;;;;;;26.46;47.01;99398.75;5073031;28;20047;-76
2021/06/27 07:03:36;;;;;;;9.02;2.55;;;;;;;26.08;46.87;99321.13;5072948;28;20091;-76
2021/06/27 07:06:02;;;;;;;10.20;3.20;;;;;;;26.03;47.10;99303.06;5072555;28;20029;-75
2021/06/27 07:08:30;;;;;;;11.20;3.28;;;;;;;26.64;46.94;99390.97;5072541;28;20078;-76
2021/06/27 07:10:56;;;;;;;7.18;3.15;;;;;;;26.44;46.73;99346.78;5072480;28;20021;-75
2021/06/27 07:13:22;;;;;;;9.45;3.47;;;;;;;26.71;46.33;99380.59;5072627;28;20119;-76
2021/06/27 07:15:48;;;;;;;9.52;3.15;;;;;;;26.66;45.98;99365.22;5072802;28;20083;-76
2021/06/27 07:18:13;;;;;;;10.75;3.20;;;;;;;26.55;45.75;99352.88;5072547;28;20099;-75
2021/06/27 07:20:39;;;;;;;12.73;3.35;;;;;;;26.89;45.80;99391.53;5071817;28;20492;-75
2021/06/27 07:23:04;;;;;;;8.23;2.70;;;;;;;26.66;45.32;99350.88;5072281;28;20052;-75
2021/06/27 07:25:30;;;;;;;7.65;2.80;;;;;;;26.99;45.63;99404.19;5072724;28;20051;-76
2021/06/27 07:27:56;;;;;;;8.80;2.67;;;;;;;26.54;45.40;99329.63;5072495;28;20509;-78
2021/06/27 07:30:22;;;;;;;6.68;2.60;;;;;;;26.87;45.19;99372.03;5072372;28;20055;-76
2021/06/27 07:32:47;;;;;;;7.78;2.70;;;;;;;27.07;45.16;99390.00;5072298;28;20086;-76
2021/06/27 07:35:13;;;;;;;10.32;3.20;;;;;;;27.04;45.01;99393.28;5072118;28;20024;-74
2021/06/27 07:37:38;;;;;;;8.43;2.63;;;;;;;27.29;45.20;99411.13;5072281;28;20464;-76
2021/06/27 07:40:05;;;;;;;8.07;2.67;;;;;;;27.03;45.17;99350.22;5072350;28;20158;-76
2021/06/27 07:42:39;;;;;;;8.85;3.03;;;;;;;27.13;44.94;99350.06;5068960;28;20401;-75
2021/06/27 07:45:06;;;;;;;9.23;3.08;;;;;;;27.13;44.99;99331.09;5068706;28;20525;-76
2021/06/27 07:47:32;;;;;;;9.50;2.80;;;;;;;27.05;45.30;99308.19;5068627;28;20111;-75
2021/06/27 07:49:57;;;;;;;10.90;2.65;;;;;;;27.21;45.06;99317.69;5068698;28;20059;-76
2021/06/27 07:52:23;;;;;;;9.82;2.92;;;;;;;27.78;45.01;99391.75;5068569;28;20021;-76
2021/06/27 07:54:48;;;;;;;8.75;2.90;;;;;;;27.89;44.85;99391.59;5067445;28;20028;-76
2021/06/27 07:57:14;;;;;;;7.07;2.92;;;;;;;27.68;44.90;99351.22;5068548;28;20146;-76
2021/06/27 07:59:39;;;;;;;10.45;2.85;;;;;;;28.06;44.54;99391.88;5068316;28;20017;-76
2021/06/27 08:02:05;;;;;;;9.25;3.13;;;;;;;27.84;44.59;99349.88;5068113;28;20095;-75
2021/06/27 08:04:30;;;;;;;7.68;3.10;;;;;;;27.94;44.48;99345.38;5068065;28;20036;-76
2021/06/27 08:06:56;;;;;;;9.32;2.80;;;;;;;28.33;44.09;99386.56;5067979;28;20024;-77
2021/06/27 08:09:21;;;;;;;6.45;2.60;;;;;;;28.29;44.20;99368.47;5067990;28;20086;-77
2021/06/27 08:11:47;;;;;;;8.80;3.08;;;;;;;28.57;44.14;99393.75;5068124;28;20700;-74
2021/06/27 08:14:12;;;;;;;5.20;2.47;;;;;;;28.68;43.89;99382.38;5068171;28;20024;-77
2021/06/27 08:16:38;;;;;;;8.60;2.65;;;;;;;28.60;43.17;99355.91;5067950;28;20021;-75
2021/06/27 08:19:05;;;;;;;12.63;3.05;;;;;;;28.90;42.70;99392.56;5066787;28;20074;-76
2021/06/27 08:21:31;;;;;;;10.00;2.88;;;;;;;28.45;42.03;99304.59;5066694;28;20044;-76
2021/06/27 08:23:56;;;;;;;9.50;3.10;;;;;;;28.47;42.25;99311.34;5066822;28;20181;-75
2021/06/27 08:26:23;;;;;;;6.78;3.15;;;;;;;28.73;42.16;99346.16;5066547;28;20021;-75
2021/06/27 08:28:52;;;;;;;9.88;3.13;;;;;;;28.99;41.75;99366.31;5067848;28;20063;-76
2021/06/27 08:31:21;;;;;;;8.00;3.08;;;;;;;29.23;40.92;99390.56;5066458;28;20105;-76
2021/06/27 08:33:46;;;;;;;7.72;2.35;;;;;;;29.28;40.17;99390.44;5067864;28;20025;-77
2021/06/27 08:36:11;;;;;;;10.63;2.90;;;;;;;28.99;40.30;99332.91;5067690;28;20413;-76
2021/06/27 08:38:37;;;;;;;9.73;2.72;;;;;;;29.39;39.69;99385.59;5067597;28;20446;-75
2021/06/27 08:41:02;;;;;;;8.13;2.60;;;;;;;29.14;39.25;99340.72;5067074;28;20047;-75
2021/06/27 08:43:31;;;;;;;7.30;2.65;;;;;;;29.59;39.03;99390.59;5067397;28;20096;-76
2021/06/27 08:45:58;;;;;;;8.38;2.55;;;;;;;29.36;39.01;99338.06;5067307;28;20015;-76
2021/06/27 08:48:26;;;;;;;6.57;3.00;;;;;;;29.70;39.16;99364.75;5066243;28;20095;-75
2021/06/27 08:50:53;;;;;;;9.63;2.67;;;;;;;29.70;38.51;99353.06;5067123;28;20025;-76
2021/06/27 08:53:19;;;;;;;10.57;2.63;;;;;;;30.04;38.23;99391.47;5057713;28;20162;-76
2021/06/27 08:55:45;;;;;;;8.60;2.67;;;;;;;29.61;37.93;99295.88;5052516;28;20565;-76
2021/06/27 08:58:11;;;;;;;10.93;2.95;;;;;;;30.12;38.11;99372.78;5053636;28;20016;-76
2021/06/27 09:00:38;;;;;;;8.32;3.13;;;;;;;30.30;37.61;99377.22;5052662;28;20025;-76
2021/06/27 09:03:09;;;;;;;8.45;3.22;;;;;;;30.35;37.44;99371.63;5054007;28;20078;-76
2021/06/27 09:05:37;;;;;;;7.15;2.70;;;;;;;30.39;37.92;99355.47;5053916;28;20021;-76
2021/06/27 09:08:17;;;;;;;9.63;2.97;;;;;;;30.32;37.47;99329.47;5053926;28;20055;-77
2021/06/27 09:10:43;;;;;;;11.82;3.75;;;;;;;30.66;37.07;99360.75;5053744;28;20020;-77
2021/06/27 09:13:08;;;;;;;10.25;3.25;;;;;;;30.91;36.80;99381.84;5053814;28;20013;-77
2021/06/27 09:15:42;;;;;;;9.05;3.15;;;;;;;31.12;36.92;99384.78;5053732;28;20566;-75
2021/06/27 09:18:13;;;;;;;8.70;3.00;;;;;;;31.26;36.41;99385.50;5053854;28;20516;-74
2021/06/27 09:20:41;;;;;;;8.35;3.10;;;;;;;31.31;35.65;99373.66;5053487;28;20083;-76
2021/06/27 09:23:08;;;;;;;9.05;3.15;;;;;;;31.38;35.86;99367.72;5053403;28;20358;-75
2021/06/27 09:25:34;;;;;;;6.25;2.67;;;;;;;31.39;36.07;99350.22;5053485;28;20028;-76
2021/06/27 09:28:16;;;;;;;10.52;2.78;;;;;;;31.84;35.14;99372.56;5053453;28;20025;-77
2021/06/27 09:30:46;;;;;;;8.95;2.75;;;;;;;32.00;34.96;99379.16;5053441;28;20009;-77
2021/06/27 09:33:14;;;;;;;5.60;2.53;;;;;;;32.12;34.76;99379.28;5053373;28;20083;-76
2021/06/27 09:35:56;;;;;;;6.97;2.38;;;;;;;32.27;34.21;99367.06;5052995;28;20275;-76
2021/06/27 09:38:36;;;;;;;9.40;2.67;;;;;;;32.29;33.30;99340.22;5052848;28;20437;-77
2021/06/27 09:41:04;;;;;;;10.05;2.58;;;;;;;32.73;33.36;99371.72;5052895;28;20029;-77
2021/06/27 09:43:32;;;;;;;7.50;3.00;;;;;;;32.88;32.32;99367.66;5052965;28;20025;-77
2021/06/27 09:46:01;;;;;;;11.02;3.25;;;;;;;33.07;31.86;99367.22;5052928;28;20417;-76
2021/06/27 09:48:27;;;;;;;6.25;2.55;;;;;;;33.18;31.46;99352.03;5051655;28;20045;-75
2021/06/27 09:50:54;;;;;;;8.32;2.63;;;;;;;33.50;31.52;99356.03;5052701;28;20078;-75
2021/06/27 09:53:46;;;;;;;8.52;2.72;;;;;;;33.71;30.75;99356.00;5051543;28;20098;-77
2021/06/27 09:56:13;;;;;;;7.03;2.50;;;;;;;33.61;30.58;99318.88;5049689;28;20037;-77
2021/06/27 09:58:38;;;;;;;8.32;2.58;;;;;;;33.68;30.58;99291.75;5052737;28;20032;-77
2021/06/27 10:01:21;;;;;;;6.82;2.75;;;;;;;34.16;30.27;99334.13;5052749;28;20021;-77
2021/06/27 10:03:56;;;;;;;8.35;2.75;;;;;;;33.92;30.41;99302.00;5052037;28;20033;-77
2021/06/27 10:06:33;;;;;;;6.22;2.50;;;;;;;34.47;30.19;99341.88;5052428;28;20051;-77
2021/06/27 10:09:18;;;;;;;9.05;3.05;;;;;;;34.59;29.18;99335.59;5052416;28;20029;-76
2021/06/27 10:12:04;;;;;;;9.38;3.13;;;;;;;34.70;27.57;99334.81;5052626;28;20078;-76
2021/06/27 10:14:39;;;;;;;8.68;2.20;;;;;;;34.78;28.96;99335.81;5052455;28;20107;-77
2021/06/27 10:17:05;;;;;;;8.32;2.97;;;;;;;34.79;29.06;99320.16;5051057;28;20031;-76
2021/06/27 10:19:31;;;;;;;7.85;2.83;;;;;;;34.90;29.22;99335.03;5052334;28;20021;-77
2021/06/27 10:21:59;;;;;;;6.38;2.65;;;;;;;35.11;29.32;99335.72;5052280;28;20029;-76
2021/06/27 10:24:25;;;;;;;5.32;2.20;;;;;;;35.31;29.14;99328.47;5052407;28;20043;-82
2021/06/27 10:26:51;;;;;;;8.00;2.47;;;;;;;35.12;28.43;99276.94;5052531;28;20074;-83
2021/06/27 10:29:19;;;;;;;10.05;3.00;;;;;;;35.55;28.74;99324.88;5052290;28;20021;-82
2021/06/27 10:31:45;;;;;;;10.30;3.40;;;;;;;35.25;28.77;99285.94;5052132;28;20040;-82
2021/06/27 10:34:11;;;;;;;8.68;2.80;;;;;;;35.30;28.99;99296.69;5051994;28;20025;-82
2021/06/27 10:36:39;;;;;;;8.95;3.08;;;;;;;35.52;28.59;99322.81;5052085;28;20075;-80
2021/06/27 10:39:15;;;;;;;8.60;2.67;;;;;;;35.15;28.99;99240.56;5051853;28;20071;-82
2021/06/27 10:42:01;;;;;;;8.27;2.95;;;;;;;35.70;28.37;99307.66;5051681;28;20025;-83
2021/06/27 10:44:28;;;;;;;7.40;2.78;;;;;;;35.80;28.05;99320.88;5051929;28;20493;-81
2021/06/27 10:46:59;;;;;;;5.22;2.58;;;;;;;35.90;28.60;99284.69;5051837;28;20501;-84
2021/06/27 10:49:33;;;;;;;5.82;2.50;;;;;;;36.28;27.21;99311.59;5050568;28;20028;-82
2021/06/27 10:52:12;;;;;;;9.85;2.95;;;;;;;36.38;27.61;99312.22;5050687;28;20082;-82
2021/06/27 10:55:01;;;;;;;6.93;2.85;;;;;;;36.49;27.85;99307.78;5051880;28;20096;-83
2021/06/27 10:57:57;;;;;;;5.65;2.72;;;;;;;36.75;27.16;99301.72;5050025;28;20179;-82
2021/06/27 11:00:23;;;;;;;9.13;2.92;;;;;;;36.66;27.08;99271.66;5051824;28;20036;-82
2021/06/27 11:02:49;;;;;;;7.65;3.20;;;;;;;36.83;26.81;99292.50;5051824;28;20480;-82
2021/06/27 11:05:32;;;;;;;9.10;2.95;;;;;;;37.08;27.15;99296.59;5051806;28;20087;-82
2021/06/27 11:07:59;;;;;;;7.90;3.95;;;;;;;36.99;26.86;99276.72;5051724;28;20044;-83
2021/06/27 11:10:24;;;;;;;11.88;3.22;;;;;;;37.01;26.52;99281.88;5051444;28;20032;-81
2021/06/27 11:12:59;;;;;;;12.90;5.70;;;;;;;36.97;26.69;99292.00;5051432;28;20021;-82
2021/06/27 11:15:28;;;;;;;9.70;3.00;;;;;;;37.19;26.38;99289.38;5051316;28;20494;-82
2021/06/27 11:18:01;;;;;;;10.10;3.10;;;;;;;36.82;26.10;99205.59;5051447;28;20013;-82
2021/06/27 11:20:32;;;;;;;11.82;3.58;;;;;;;37.52;26.11;99279.81;5051507;28;20021;-82
2021/06/27 11:22:59;;;;;;;11.10;3.00;;;;;;;37.48;26.01;99274.25;5051610;28;20021;-82
2021/06/27 11:25:46;;;;;;;13.60;4.53;;;;;;;37.03;26.56;99271.31;5051335;28;20047;-78
2021/06/27 11:28:17;;;;;;;8.45;3.38;;;;;;;37.04;26.65;99268.19;5051128;28;20094;-76
2021/06/27 11:30:47;;;;;;;10.48;3.45;;;;;;;36.86;26.28;99234.00;5049832;28;20032;-76
2021/06/27 11:33:24;;;;;;;6.97;2.78;;;;;;;36.95;26.27;99220.03;5050972;28;20112;-76
2021/06/27 11:35:54;;;;;;;7.10;3.08;;;;;;;37.32;26.15;99268.03;5051209;28;20054;-76